sensor_id;sensor_type;location;lat;lon;timestamp;pressure;altitude;pressure_sealevel;temperature;humidity
50770;BME280;36740;48.698;11.472;2023-11-19T00:01:53;97483.25;;;4.35;100.00
50770;BME280;36740;48.698;11.472;2023-11-19T00:04:39;97493.41;;;4.35;100.00
50770;BME280;36740;48.698;11.472;2023-11-19T00:07:25;97491.97;;;4.43;100.00
50770;BME280;36740;48.698;11.472;2023-11-19T00:10:13;97484.56;;;4.40;100.00
50770;BME280;36740;48.698;11.472;2023-11-19T00:12:59;97482.66;;;4.44;100.00
50770;BME280;36740;48.698;11.472;2023-11-19T00:15:44;97466.41;;;4.47;100.00
50770;BME280;36740;48.698;11.472;2023-11-19T00:18:30;97464.38;;;4.39;100.00
50770;BME280;36740;48.698;11.472;2023-11-19T00:21:16;97473.22;;;4.46;100.00
50770;BME280;36740;48.698;11.472;2023-11-19T00:24:02;97471.19;;;4.51;100.00
50770;BME280;36740;48.698;11.472;2023-11-19T00:26:48;97464.56;;;4.49;100.00
50770;BME280;36740;48.698;11.472;2023-11-19T00:29:34;97459.09;;;4.55;100.00
50770;BME280;36740;48.698;11.472;2023-11-19T00:32:21;97452.19;;;4.57;100.00
50770;BME280;36740;48.698;11.472;2023-11-19T00:35:07;97456.16;;;4.48;100.00
50770;BME280;36740;48.698;11.472;2023-11-19T00:37:53;97454.72;;;4.57;100.00
50770;BME280;36740;48.698;11.472;2023-11-19T00:40:39;97443.56;;;4.59;100.00
50770;BME280;36740;48.698;11.472;2023-11-19T00:43:26;97436.03;;;4.58;100.00
50770;BME280;36740;48.698;11.472;2023-11-19T00:46:12;97431.38;;;4.65;100.00
50770;BME280;36740;48.698;11.472;2023-11-19T00:48:59;97426.38;;;4.63;100.00
50770;BME280;36740;48.698;11.472;2023-11-19T00:51:46;97426.91;;;4.68;100.00
50770;BME280;36740;48.698;11.472;2023-11-19T00:54:32;97414.44;;;4.52;100.00
50770;BME280;36740;48.698;11.472;2023-11-19T00:57:18;97404.97;;;4.54;100.00
50770;BME280;36740;48.698;11.472;2023-11-19T01:00:05;97398.16;;;4.55;100.00
50770;BME280;36740;48.698;11.472;2023-11-19T01:03:03;97405.47;;;4.47;100.00
50770;BME280;36740;48.698;11.472;2023-11-19T01:05:49;97405.66;;;4.43;100.00
50770;BME280;36740;48.698;11.472;2023-11-19T01:08:36;97418.69;;;4.39;100.00
50770;BME280;36740;48.698;11.472;2023-11-19T01:11:22;97415.09;;;4.29;100.00
50770;BME280;36740;48.698;11.472;2023-11-19T01:14:08;97405.28;;;4.50;100.00
50770;BME280;36740;48.698;11.472;2023-11-19T01:16:54;97407.31;;;4.45;100.00
50770;BME280;36740;48.698;11.472;2023-11-19T01:19:39;97408.09;;;4.45;100.00
50770;BME280;36740;48.698;11.472;2023-11-19T01:22:25;97408.31;;;4.42;100.00
50770;BME280;36740;48.698;11.472;2023-11-19T01:25:11;97397.75;;;4.35;100.00
50770;BME280;36740;48.698;11.472;2023-11-19T01:27:57;97385.78;;;4.37;100.00
50770;BME280;36740;48.698;11.472;2023-11-19T01:30:43;97396.34;;;4.44;100.00
50770;BME280;36740;48.698;11.472;2023-11-19T01:33:29;97402.84;;;4.48;100.00
50770;BME280;36740;48.698;11.472;2023-11-19T01:36:15;97399.50;;;4.48;100.00
50770;BME280;36740;48.698;11.472;2023-11-19T01:39:01;97394.22;;;4.51;100.00
50770;BME280;36740;48.698;11.472;2023-11-19T01:41:47;97383.31;;;4.49;100.00
50770;BME280;36740;48.698;11.472;2023-11-19T01:44:33;97376.13;;;4.55;100.00
50770;BME280;36740;48.698;11.472;2023-11-19T01:47:19;97376.44;;;4.51;100.00
50770;BME280;36740;48.698;11.472;2023-11-19T01:50:06;97384.97;;;4.63;100.00
50770;BME280;36740;48.698;11.472;2023-11-19T01:52:53;97385.97;;;4.60;100.00
50770;BME280;36740;48.698;11.472;2023-11-19T01:55:40;97379.47;;;4.69;100.00
50770;BME280;36740;48.698;11.472;2023-11-19T01:58:26;97374.59;;;4.66;100.00
50770;BME280;36740;48.698;11.472;2023-11-19T02:01:13;97366.44;;;4.73;100.00
50770;BME280;36740;48.698;11.472;2023-11-19T02:03:59;97349.59;;;4.72;100.00
50770;BME280;36740;48.698;11.472;2023-11-19T02:06:45;97338.09;;;4.67;100.00
50770;BME280;36740;48.698;11.472;2023-11-19T02:09:34;97336.41;;;4.67;100.00
50770;BME280;36740;48.698;11.472;2023-11-19T02:12:19;97342.19;;;4.69;100.00
50770;BME280;36740;48.698;11.472;2023-11-19T02:15:06;97335.69;;;4.65;100.00
50770;BME280;36740;48.698;11.472;2023-11-19T02:17:52;97333.44;;;4.73;100.00
50770;BME280;36740;48.698;11.472;2023-11-19T02:20:38;97325.59;;;4.76;100.00
50770;BME280;36740;48.698;11.472;2023-11-19T02:23:25;97322.25;;;4.76;100.00
50770;BME280;36740;48.698;11.472;2023-11-19T02:26:19;97313.38;;;4.82;100.00
50770;BME280;36740;48.698;11.472;2023-11-19T02:29:08;97306.22;;;4.75;100.00
50770;BME280;36740;48.698;11.472;2023-11-19T02:31:54;97306.91;;;4.77;100.00
50770;BME280;36740;48.698;11.472;2023-11-19T02:34:40;97301.91;;;4.89;100.00
50770;BME280;36740;48.698;11.472;2023-11-19T02:37:26;97300.06;;;4.91;100.00
50770;BME280;36740;48.698;11.472;2023-11-19T02:40:13;97293.34;;;4.90;100.00
50770;BME280;36740;48.698;11.472;2023-11-19T02:42:59;97295.69;;;4.93;100.00
50770;BME280;36740;48.698;11.472;2023-11-19T02:45:45;97297.72;;;4.88;100.00
50770;BME280;36740;48.698;11.472;2023-11-19T02:48:31;97290.91;;;4.88;100.00
50770;BME280;36740;48.698;11.472;2023-11-19T02:51:17;97279.63;;;4.92;100.00
50770;BME280;36740;48.698;11.472;2023-11-19T02:54:04;97271.91;;;4.94;100.00
50770;BME280;36740;48.698;11.472;2023-11-19T02:56:50;97269.97;;;4.97;100.00
50770;BME280;36740;48.698;11.472;2023-11-19T02:59:40;97280.28;;;5.07;100.00
50770;BME280;36740;48.698;11.472;2023-11-19T03:02:28;97270.81;;;5.09;100.00
50770;BME280;36740;48.698;11.472;2023-11-19T03:05:19;97272.44;;;5.10;100.00
50770;BME280;36740;48.698;11.472;2023-11-19T03:08:05;97272.81;;;5.17;100.00
50770;BME280;36740;48.698;11.472;2023-11-19T03:10:51;97270.06;;;5.20;100.00
50770;BME280;36740;48.698;11.472;2023-11-19T03:13:37;97266.00;;;5.17;100.00
50770;BME280;36740;48.698;11.472;2023-11-19T03:16:22;97261.75;;;5.18;100.00
50770;BME280;36740;48.698;11.472;2023-11-19T03:19:08;97261.13;;;5.14;100.00
50770;BME280;36740;48.698;11.472;2023-11-19T03:21:54;97259.22;;;5.18;100.00
50770;BME280;36740;48.698;11.472;2023-11-19T03:24:40;97260.59;;;5.22;100.00
50770;BME280;36740;48.698;11.472;2023-11-19T03:27:25;97263.66;;;5.14;100.00
50770;BME280;36740;48.698;11.472;2023-11-19T03:30:11;97257.34;;;5.20;100.00
50770;BME280;36740;48.698;11.472;2023-11-19T03:32:57;97262.69;;;5.28;100.00
50770;BME280;36740;48.698;11.472;2023-11-19T03:35:43;97266.03;;;5.29;100.00
50770;BME280;36740;48.698;11.472;2023-11-19T03:38:29;97267.31;;;5.34;100.00
50770;BME280;36740;48.698;11.472;2023-11-19T03:41:15;97260.06;;;5.30;100.00
50770;BME280;36740;48.698;11.472;2023-11-19T03:44:02;97260.97;;;5.29;100.00
50770;BME280;36740;48.698;11.472;2023-11-19T03:46:48;97257.97;;;5.35;100.00
50770;BME280;36740;48.698;11.472;2023-11-19T03:49:34;97259.47;;;5.38;100.00
50770;BME280;36740;48.698;11.472;2023-11-19T03:52:20;97255.00;;;5.41;100.00
50770;BME280;36740;48.698;11.472;2023-11-19T03:55:06;97262.16;;;5.47;100.00
50770;BME280;36740;48.698;11.472;2023-11-19T03:57:54;97263.81;;;5.48;100.00
50770;BME280;36740;48.698;11.472;2023-11-19T04:00:39;97260.47;;;5.48;100.00
50770;BME280;36740;48.698;11.472;2023-11-19T04:03:26;97268.34;;;5.56;100.00
50770;BME280;36740;48.698;11.472;2023-11-19T04:06:12;97263.25;;;5.56;100.00
50770;BME280;36740;48.698;11.472;2023-11-19T04:08:57;97265.69;;;5.58;100.00
50770;BME280;36740;48.698;11.472;2023-11-19T04:11:43;97263.63;;;5.63;100.00
50770;BME280;36740;48.698;11.472;2023-11-19T04:14:29;97262.22;;;5.70;100.00
50770;BME280;36740;48.698;11.472;2023-11-19T04:17:15;97263.13;;;5.69;100.00
50770;BME280;36740;48.698;11.472;2023-11-19T04:20:00;97258.84;;;5.58;100.00
50770;BME280;36740;48.698;11.472;2023-11-19T04:22:46;97263.16;;;5.58;100.00
50770;BME280;36740;48.698;11.472;2023-11-19T04:25:32;97256.56;;;5.66;100.00
50770;BME280;36740;48.698;11.472;2023-11-19T04:28:18;97256.59;;;5.78;100.00
50770;BME280;36740;48.698;11.472;2023-11-19T04:31:04;97248.59;;;5.71;100.00
50770;BME280;36740;48.698;11.472;2023-11-19T04:33:51;97238.91;;;5.76;100.00
50770;BME280;36740;48.698;11.472;2023-11-19T04:36:38;97229.41;;;5.78;100.00
50770;BME280;36740;48.698;11.472;2023-11-19T04:39:24;97225.00;;;5.80;100.00
50770;BME280;36740;48.698;11.472;2023-11-19T04:42:10;97218.53;;;5.76;100.00
50770;BME280;36740;48.698;11.472;2023-11-19T04:44:56;97220.25;;;5.76;100.00
50770;BME280;36740;48.698;11.472;2023-11-19T04:47:43;97227.78;;;5.77;100.00
50770;BME280;36740;48.698;11.472;2023-11-19T04:50:28;97219.56;;;5.73;100.00
50770;BME280;36740;48.698;11.472;2023-11-19T04:53:14;97219.34;;;5.77;100.00
50770;BME280;36740;48.698;11.472;2023-11-19T04:56:01;97216.69;;;5.78;100.00
50770;BME280;36740;48.698;11.472;2023-11-19T04:58:52;97208.13;;;5.79;100.00
50770;BME280;36740;48.698;11.472;2023-11-19T05:01:38;97209.38;;;5.73;100.00
50770;BME280;36740;48.698;11.472;2023-11-19T05:04:24;97207.09;;;5.82;100.00
50770;BME280;36740;48.698;11.472;2023-11-19T05:07:09;97182.22;;;5.85;100.00
50770;BME280;36740;48.698;11.472;2023-11-19T05:09:55;97183.84;;;5.86;100.00
50770;BME280;36740;48.698;11.472;2023-11-19T05:12:41;97202.00;;;5.93;100.00
50770;BME280;36740;48.698;11.472;2023-11-19T05:15:27;97214.41;;;5.98;100.00
50770;BME280;36740;48.698;11.472;2023-11-19T05:18:13;97214.31;;;6.11;100.00
50770;BME280;36740;48.698;11.472;2023-11-19T05:20:59;97217.53;;;6.24;100.00
50770;BME280;36740;48.698;11.472;2023-11-19T05:23:44;97227.81;;;6.34;100.00
50770;BME280;36740;48.698;11.472;2023-11-19T05:26:30;97217.38;;;6.37;100.00
50770;BME280;36740;48.698;11.472;2023-11-19T05:29:16;97217.88;;;6.42;100.00
50770;BME280;36740;48.698;11.472;2023-11-19T05:32:02;97221.78;;;6.46;100.00
50770;BME280;36740;48.698;11.472;2023-11-19T05:34:47;97235.19;;;6.48;100.00
50770;BME280;36740;48.698;11.472;2023-11-19T05:37:33;97234.75;;;6.43;100.00
50770;BME280;36740;48.698;11.472;2023-11-19T05:40:20;97230.34;;;6.45;100.00
50770;BME280;36740;48.698;11.472;2023-11-19T05:43:06;97234.28;;;6.49;100.00
50770;BME280;36740;48.698;11.472;2023-11-19T05:45:51;97229.97;;;6.50;100.00
50770;BME280;36740;48.698;11.472;2023-11-19T05:48:37;97224.88;;;6.50;100.00
50770;BME280;36740;48.698;11.472;2023-11-19T05:51:23;97225.78;;;6.60;100.00
50770;BME280;36740;48.698;11.472;2023-11-19T05:54:10;97215.47;;;6.61;100.00
50770;BME280;36740;48.698;11.472;2023-11-19T05:56:56;97212.47;;;6.68;100.00
50770;BME280;36740;48.698;11.472;2023-11-19T05:59:42;97215.34;;;6.74;100.00
50770;BME280;36740;48.698;11.472;2023-11-19T06:02:34;97208.13;;;6.79;100.00
50770;BME280;36740;48.698;11.472;2023-11-19T06:05:20;97202.94;;;6.81;100.00
50770;BME280;36740;48.698;11.472;2023-11-19T06:08:05;97204.00;;;6.78;100.00
50770;BME280;36740;48.698;11.472;2023-11-19T06:10:52;97207.34;;;6.79;100.00
50770;BME280;36740;48.698;11.472;2023-11-19T06:13:38;97214.50;;;6.85;100.00
50770;BME280;36740;48.698;11.472;2023-11-19T06:16:24;97219.44;;;6.98;100.00
50770;BME280;36740;48.698;11.472;2023-11-19T06:19:09;97215.84;;;7.00;100.00
50770;BME280;36740;48.698;11.472;2023-11-19T06:21:55;97216.75;;;6.99;100.00
50770;BME280;36740;48.698;11.472;2023-11-19T06:24:41;97215.59;;;7.04;100.00
50770;BME280;36740;48.698;11.472;2023-11-19T06:27:27;97217.41;;;7.13;100.00
50770;BME280;36740;48.698;11.472;2023-11-19T06:30:13;97219.69;;;7.16;100.00
50770;BME280;36740;48.698;11.472;2023-11-19T06:32:58;97212.31;;;7.13;100.00
50770;BME280;36740;48.698;11.472;2023-11-19T06:35:45;97211.00;;;7.18;100.00
50770;BME280;36740;48.698;11.472;2023-11-19T06:38:31;97215.06;;;7.21;100.00
50770;BME280;36740;48.698;11.472;2023-11-19T06:41:16;97219.03;;;7.35;100.00
50770;BME280;36740;48.698;11.472;2023-11-19T06:44:02;97216.25;;;7.38;100.00
50770;BME280;36740;48.698;11.472;2023-11-19T06:46:48;97223.22;;;7.36;100.00
50770;BME280;36740;48.698;11.472;2023-11-19T06:49:34;97218.19;;;7.46;100.00
50770;BME280;36740;48.698;11.472;2023-11-19T06:52:20;97220.59;;;7.47;100.00
50770;BME280;36740;48.698;11.472;2023-11-19T06:55:06;97219.09;;;7.45;100.00
50770;BME280;36740;48.698;11.472;2023-11-19T06:57:52;97211.22;;;7.48;100.00
50770;BME280;36740;48.698;11.472;2023-11-19T07:00:38;97213.94;;;7.56;100.00
50770;BME280;36740;48.698;11.472;2023-11-19T07:03:24;97211.38;;;7.56;100.00
50770;BME280;36740;48.698;11.472;2023-11-19T07:06:10;97211.16;;;7.59;100.00
50770;BME280;36740;48.698;11.472;2023-11-19T07:08:56;97216.44;;;7.67;100.00
50770;BME280;36740;48.698;11.472;2023-11-19T07:11:43;97209.03;;;7.64;100.00
50770;BME280;36740;48.698;11.472;2023-11-19T07:14:29;97217.09;;;7.69;100.00
50770;BME280;36740;48.698;11.472;2023-11-19T07:17:15;97220.63;;;7.78;100.00
50770;BME280;36740;48.698;11.472;2023-11-19T07:20:01;97223.97;;;7.79;100.00
50770;BME280;36740;48.698;11.472;2023-11-19T07:22:46;97224.31;;;7.85;100.00
50770;BME280;36740;48.698;11.472;2023-11-19T07:25:32;97231.03;;;7.86;100.00
50770;BME280;36740;48.698;11.472;2023-11-19T07:28:20;97235.31;;;7.86;100.00
50770;BME280;36740;48.698;11.472;2023-11-19T07:31:06;97239.47;;;7.87;100.00
50770;BME280;36740;48.698;11.472;2023-11-19T07:33:54;97235.25;;;7.97;100.00
50770;BME280;36740;48.698;11.472;2023-11-19T07:36:40;97240.09;;;8.00;100.00
50770;BME280;36740;48.698;11.472;2023-11-19T07:39:26;97239.03;;;8.03;100.00
50770;BME280;36740;48.698;11.472;2023-11-19T07:42:12;97239.81;;;8.03;100.00
50770;BME280;36740;48.698;11.472;2023-11-19T07:44:57;97237.13;;;8.05;100.00
50770;BME280;36740;48.698;11.472;2023-11-19T07:47:44;97235.59;;;8.14;100.00
50770;BME280;36740;48.698;11.472;2023-11-19T07:50:32;97236.50;;;8.12;100.00
50770;BME280;36740;48.698;11.472;2023-11-19T07:53:19;97239.91;;;8.23;100.00
50770;BME280;36740;48.698;11.472;2023-11-19T07:56:05;97237.22;;;8.24;100.00
50770;BME280;36740;48.698;11.472;2023-11-19T07:58:51;97234.41;;;8.27;100.00
50770;BME280;36740;48.698;11.472;2023-11-19T08:01:37;97239.25;;;8.30;100.00
50770;BME280;36740;48.698;11.472;2023-11-19T08:04:23;97239.69;;;8.36;100.00
50770;BME280;36740;48.698;11.472;2023-11-19T08:07:09;97233.00;;;8.44;100.00
50770;BME280;36740;48.698;11.472;2023-11-19T08:09:55;97235.03;;;8.51;100.00
50770;BME280;36740;48.698;11.472;2023-11-19T08:12:40;97219.47;;;8.54;100.00
50770;BME280;36740;48.698;11.472;2023-11-19T08:15:27;97218.66;;;8.53;100.00
50770;BME280;36740;48.698;11.472;2023-11-19T08:18:13;97224.06;;;8.60;100.00
50770;BME280;36740;48.698;11.472;2023-11-19T08:20:59;97224.19;;;8.68;100.00
50770;BME280;36740;48.698;11.472;2023-11-19T08:23:50;97227.28;;;8.72;100.00
50770;BME280;36740;48.698;11.472;2023-11-19T08:26:35;97218.13;;;8.79;100.00
50770;BME280;36740;48.698;11.472;2023-11-19T08:29:21;97223.25;;;8.89;100.00
50770;BME280;36740;48.698;11.472;2023-11-19T08:32:07;97218.69;;;8.92;100.00
50770;BME280;36740;48.698;11.472;2023-11-19T08:34:53;97223.41;;;8.97;100.00
50770;BME280;36740;48.698;11.472;2023-11-19T08:37:39;97224.06;;;8.99;100.00
50770;BME280;36740;48.698;11.472;2023-11-19T08:40:25;97223.28;;;8.98;100.00
50770;BME280;36740;48.698;11.472;2023-11-19T08:43:15;97230.41;;;9.04;100.00
50770;BME280;36740;48.698;11.472;2023-11-19T08:46:01;97222.88;;;9.03;100.00
50770;BME280;36740;48.698;11.472;2023-11-19T08:48:47;97222.06;;;9.02;100.00
50770;BME280;36740;48.698;11.472;2023-11-19T08:51:33;97236.19;;;9.07;100.00
50770;BME280;36740;48.698;11.472;2023-11-19T08:54:18;97235.94;;;9.10;100.00
50770;BME280;36740;48.698;11.472;2023-11-19T08:57:05;97239.44;;;9.18;100.00
50770;BME280;36740;48.698;11.472;2023-11-19T08:59:52;97245.63;;;9.26;100.00
50770;BME280;36740;48.698;11.472;2023-11-19T09:02:38;97239.56;;;9.36;100.00
50770;BME280;36740;48.698;11.472;2023-11-19T09:05:24;97242.75;;;9.48;100.00
50770;BME280;36740;48.698;11.472;2023-11-19T09:08:10;97247.59;;;9.61;100.00
50770;BME280;36740;48.698;11.472;2023-11-19T09:10:57;97246.91;;;9.78;100.00
50770;BME280;36740;48.698;11.472;2023-11-19T09:13:43;97240.09;;;9.97;100.00
50770;BME280;36740;48.698;11.472;2023-11-19T09:16:30;97247.97;;;10.33;100.00
50770;BME280;36740;48.698;11.472;2023-11-19T09:19:16;97230.53;;;10.64;100.00
50770;BME280;36740;48.698;11.472;2023-11-19T09:22:03;97224.19;;;10.59;100.00
50770;BME280;36740;48.698;11.472;2023-11-19T09:24:49;97215.91;;;10.47;100.00
50770;BME280;36740;48.698;11.472;2023-11-19T09:27:35;97206.00;;;10.34;100.00
50770;BME280;36740;48.698;11.472;2023-11-19T09:30:20;97200.72;;;10.36;100.00
50770;BME280;36740;48.698;11.472;2023-11-19T09:33:06;97218.09;;;10.42;100.00
50770;BME280;36740;48.698;11.472;2023-11-19T09:35:52;97229.38;;;10.49;100.00
50770;BME280;36740;48.698;11.472;2023-11-19T09:38:38;97234.53;;;10.67;100.00
50770;BME280;36740;48.698;11.472;2023-11-19T09:41:24;97243.13;;;11.12;100.00
50770;BME280;36740;48.698;11.472;2023-11-19T09:44:11;97229.13;;;11.42;100.00
50770;BME280;36740;48.698;11.472;2023-11-19T09:46:58;97225.44;;;11.44;100.00
50770;BME280;36740;48.698;11.472;2023-11-19T09:49:44;97213.31;;;11.29;100.00
50770;BME280;36740;48.698;11.472;2023-11-19T09:52:30;97225.66;;;11.33;100.00
50770;BME280;36740;48.698;11.472;2023-11-19T09:55:16;97227.16;;;11.36;100.00
50770;BME280;36740;48.698;11.472;2023-11-19T09:58:02;97213.59;;;11.25;100.00
50770;BME280;36740;48.698;11.472;2023-11-19T10:00:50;97204.41;;;11.23;100.00
50770;BME280;36740;48.698;11.472;2023-11-19T10:03:38;97197.53;;;11.23;100.00
50770;BME280;36740;48.698;11.472;2023-11-19T10:06:25;97212.78;;;11.25;100.00
50770;BME280;36740;48.698;11.472;2023-11-19T10:09:12;97209.19;;;11.18;100.00
50770;BME280;36740;48.698;11.472;2023-11-19T10:12:00;97210.06;;;11.27;100.00
50770;BME280;36740;48.698;11.472;2023-11-19T10:14:47;97203.09;;;11.37;100.00
50770;BME280;36740;48.698;11.472;2023-11-19T10:17:34;97189.53;;;11.53;100.00
50770;BME280;36740;48.698;11.472;2023-11-19T10:20:20;97164.16;;;11.50;100.00
50770;BME280;36740;48.698;11.472;2023-11-19T10:23:06;97154.38;;;12.14;100.00
50770;BME280;36740;48.698;11.472;2023-11-19T10:25:52;97168.53;;;12.18;100.00
50770;BME280;36740;48.698;11.472;2023-11-19T10:28:39;97165.00;;;12.19;100.00
50770;BME280;36740;48.698;11.472;2023-11-19T10:31:26;97172.66;;;12.03;100.00
50770;BME280;36740;48.698;11.472;2023-11-19T10:34:25;97171.97;;;11.92;100.00
50770;BME280;36740;48.698;11.472;2023-11-19T10:37:27;97172.31;;;11.71;100.00
50770;BME280;36740;48.698;11.472;2023-11-19T10:40:15;97161.75;;;11.74;100.00
50770;BME280;36740;48.698;11.472;2023-11-19T10:43:04;97166.13;;;12.16;100.00
50770;BME280;36740;48.698;11.472;2023-11-19T10:45:49;97169.53;;;12.25;100.00
50770;BME280;36740;48.698;11.472;2023-11-19T10:48:36;97169.38;;;12.27;100.00
50770;BME280;36740;48.698;11.472;2023-11-19T10:51:21;97161.94;;;12.15;100.00
50770;BME280;36740;48.698;11.472;2023-11-19T10:54:09;97175.72;;;12.06;100.00
50770;BME280;36740;48.698;11.472;2023-11-19T10:56:58;97187.22;;;11.94;100.00
50770;BME280;36740;48.698;11.472;2023-11-19T10:59:47;97183.66;;;11.87;100.00
50770;BME280;36740;48.698;11.472;2023-11-19T11:02:38;97178.34;;;11.88;100.00
50770;BME280;36740;48.698;11.472;2023-11-19T11:05:26;97167.25;;;11.88;100.00
50770;BME280;36740;48.698;11.472;2023-11-19T11:08:12;97160.53;;;11.87;100.00
50770;BME280;36740;48.698;11.472;2023-11-19T11:10:58;97152.50;;;11.90;100.00
50770;BME280;36740;48.698;11.472;2023-11-19T11:13:46;97145.06;;;12.05;100.00
50770;BME280;36740;48.698;11.472;2023-11-19T11:16:33;97136.03;;;12.01;100.00
50770;BME280;36740;48.698;11.472;2023-11-19T11:19:20;97136.19;;;11.99;100.00
50770;BME280;36740;48.698;11.472;2023-11-19T11:22:06;97148.69;;;11.94;100.00
50770;BME280;36740;48.698;11.472;2023-11-19T11:25:06;97152.72;;;11.96;100.00
50770;BME280;36740;48.698;11.472;2023-11-19T11:28:41;97146.78;;;11.96;100.00
50770;BME280;36740;48.698;11.472;2023-11-19T11:37:37;97151.03;;;11.87;100.00
50770;BME280;36740;48.698;11.472;2023-11-19T11:40:25;97152.50;;;11.90;100.00
50770;BME280;36740;48.698;11.472;2023-11-19T11:49:25;97145.53;;;12.76;100.00
50770;BME280;36740;48.698;11.472;2023-11-19T11:52:12;97144.69;;;12.75;100.00
50770;BME280;36740;48.698;11.472;2023-11-19T11:55:05;97141.16;;;13.25;100.00
50770;BME280;36740;48.698;11.472;2023-11-19T11:57:57;97130.22;;;13.32;99.56
50770;BME280;36740;48.698;11.472;2023-11-19T12:00:42;97122.59;;;13.63;96.86
50770;BME280;36740;48.698;11.472;2023-11-19T12:03:29;97106.47;;;14.32;94.70
50770;BME280;36740;48.698;11.472;2023-11-19T12:06:20;97090.28;;;14.69;89.97
50770;BME280;36740;48.698;11.472;2023-11-19T12:09:06;97082.78;;;14.98;87.60
50770;BME280;36740;48.698;11.472;2023-11-19T12:12:07;97083.66;;;15.28;86.17
50770;BME280;36740;48.698;11.472;2023-11-19T12:17:49;97079.44;;;15.42;84.88
50770;BME280;36740;48.698;11.472;2023-11-19T12:20:35;97067.69;;;15.84;82.00
50770;BME280;36740;48.698;11.472;2023-11-19T12:23:23;97055.09;;;15.96;81.55
50770;BME280;36740;48.698;11.472;2023-11-19T12:26:21;97048.19;;;16.03;79.39
50770;BME280;36740;48.698;11.472;2023-11-19T12:29:07;97054.88;;;16.34;77.85
50770;BME280;36740;48.698;11.472;2023-11-19T12:31:56;97041.88;;;16.06;77.50
50770;BME280;36740;48.698;11.472;2023-11-19T12:34:42;97057.91;;;15.50;79.05
50770;BME280;36740;48.698;11.472;2023-11-19T12:37:28;97061.78;;;15.60;80.37
50770;BME280;36740;48.698;11.472;2023-11-19T12:43:04;97055.03;;;15.59;81.28
50770;BME280;36740;48.698;11.472;2023-11-19T12:45:50;97056.63;;;15.16;82.06
50770;BME280;36740;48.698;11.472;2023-11-19T12:48:36;97046.75;;;15.34;81.75
50770;BME280;36740;48.698;11.472;2023-11-19T12:51:21;97067.41;;;15.04;84.34
50770;BME280;36740;48.698;11.472;2023-11-19T12:54:07;97048.88;;;15.01;84.37
50770;BME280;36740;48.698;11.472;2023-11-19T12:56:53;97055.91;;;14.92;85.47
50770;BME280;36740;48.698;11.472;2023-11-19T12:59:39;97060.94;;;14.70;85.98
50770;BME280;36740;48.698;11.472;2023-11-19T13:02:45;97058.78;;;15.27;85.78
50770;BME280;36740;48.698;11.472;2023-11-19T13:05:32;97055.06;;;15.29;83.34
50770;BME280;36740;48.698;11.472;2023-11-19T13:08:18;97045.06;;;15.41;82.79
50770;BME280;36740;48.698;11.472;2023-11-19T13:11:04;97052.91;;;15.78;82.29
50770;BME280;36740;48.698;11.472;2023-11-19T13:13:59;97049.19;;;15.87;79.84
50770;BME280;36740;48.698;11.472;2023-11-19T13:16:45;97043.69;;;16.12;78.18
50770;BME280;36740;48.698;11.472;2023-11-19T13:19:34;97031.94;;;16.09;77.65
50770;BME280;36740;48.698;11.472;2023-11-19T13:22:20;97023.13;;;16.03;77.06
50770;BME280;36740;48.698;11.472;2023-11-19T13:25:06;97019.75;;;16.25;76.78
50770;BME280;36740;48.698;11.472;2023-11-19T13:27:52;97017.09;;;16.18;76.27
50770;BME280;36740;48.698;11.472;2023-11-19T13:30:38;97016.31;;;16.17;77.27
50770;BME280;36740;48.698;11.472;2023-11-19T13:33:24;97012.16;;;16.45;76.45
50770;BME280;36740;48.698;11.472;2023-11-19T13:36:10;96998.78;;;16.41;74.62
50770;BME280;36740;48.698;11.472;2023-11-19T13:38:55;96999.16;;;16.38;75.01
50770;BME280;36740;48.698;11.472;2023-11-19T13:41:44;96985.63;;;16.36;73.82
50770;BME280;36740;48.698;11.472;2023-11-19T13:44:30;96982.81;;;16.09;75.39
50770;BME280;36740;48.698;11.472;2023-11-19T13:47:15;96996.53;;;16.10;76.55
50770;BME280;36740;48.698;11.472;2023-11-19T13:50:01;96991.25;;;15.96;76.33
50770;BME280;36740;48.698;11.472;2023-11-19T13:52:47;96987.75;;;15.68;76.98
50770;BME280;36740;48.698;11.472;2023-11-19T13:55:33;96998.00;;;15.61;77.79
50770;BME280;36740;48.698;11.472;2023-11-19T13:58:19;96998.03;;;15.46;78.53
50770;BME280;36740;48.698;11.472;2023-11-19T14:01:05;97002.03;;;15.34;78.85
50770;BME280;36740;48.698;11.472;2023-11-19T14:03:51;96999.38;;;14.97;79.70
50770;BME280;36740;48.698;11.472;2023-11-19T14:06:36;97006.94;;;14.46;81.12
50770;BME280;36740;48.698;11.472;2023-11-19T14:09:22;96995.91;;;14.14;83.49
50770;BME280;36740;48.698;11.472;2023-11-19T14:12:08;97003.56;;;13.99;84.68
50770;BME280;36740;48.698;11.472;2023-11-19T14:14:55;97005.31;;;13.75;86.09
50770;BME280;36740;48.698;11.472;2023-11-19T14:17:40;97011.84;;;13.63;87.23
50770;BME280;36740;48.698;11.472;2023-11-19T14:20:26;97017.69;;;13.49;87.72
50770;BME280;36740;48.698;11.472;2023-11-19T14:23:12;97017.22;;;13.45;88.94
50770;BME280;36740;48.698;11.472;2023-11-19T14:25:58;97019.34;;;13.41;89.28
50770;BME280;36740;48.698;11.472;2023-11-19T14:28:44;97018.19;;;13.44;89.76
50770;BME280;36740;48.698;11.472;2023-11-19T14:31:30;97029.28;;;13.44;89.38
50770;BME280;36740;48.698;11.472;2023-11-19T14:34:15;97024.13;;;13.44;90.06
50770;BME280;36740;48.698;11.472;2023-11-19T14:37:01;97028.19;;;13.39;89.91
50770;BME280;36740;48.698;11.472;2023-11-19T14:39:47;97034.44;;;13.44;90.38
50770;BME280;36740;48.698;11.472;2023-11-19T14:42:36;97032.03;;;13.43;90.66
50770;BME280;36740;48.698;11.472;2023-11-19T14:45:22;97024.31;;;13.43;90.35
50770;BME280;36740;48.698;11.472;2023-11-19T14:48:08;97028.19;;;13.39;90.39